sensor_id;sensor_type;location;lat;lon;timestamp;P1;durP1;ratioP1;P2;durP2;ratioP2
31464;SDS011;18089;47.428;15.006;2023-04-24T00:01:51;10.68;;;9.57;;
31464;SDS011;18089;47.428;15.006;2023-04-24T00:04:25;10.57;;;9.68;;
31464;SDS011;18089;47.428;15.006;2023-04-24T00:06:57;10.48;;;9.57;;
31464;SDS011;18089;47.428;15.006;2023-04-24T00:09:30;11.10;;;10.10;;
31464;SDS011;18089;47.428;15.006;2023-04-24T00:12:02;10.98;;;9.98;;
31464;SDS011;18089;47.428;15.006;2023-04-24T00:14:34;10.80;;;9.90;;
31464;SDS011;18089;47.428;15.006;2023-04-24T00:17:06;11.40;;;10.30;;
31464;SDS011;18089;47.428;15.006;2023-04-24T00:19:40;12.65;;;10.82;;
31464;SDS011;18089;47.428;15.006;2023-04-24T00:22:12;11.05;;;10.07;;
31464;SDS011;18089;47.428;15.006;2023-04-24T00:24:44;11.00;;;9.90;;
31464;SDS011;18089;47.428;15.006;2023-04-24T00:27:16;10.73;;;9.80;;
31464;SDS011;18089;47.428;15.006;2023-04-24T00:29:48;11.13;;;10.23;;
31464;SDS011;18089;47.428;15.006;2023-04-24T00:32:20;11.38;;;10.30;;
31464;SDS011;18089;47.428;15.006;2023-04-24T00:34:53;9.75;;;8.85;;
31464;SDS011;18089;47.428;15.006;2023-04-24T00:37:25;10.45;;;9.63;;
31464;SDS011;18089;47.428;15.006;2023-04-24T00:39:58;10.20;;;9.40;;
31464;SDS011;18089;47.428;15.006;2023-04-24T00:42:30;10.20;;;9.35;;
31464;SDS011;18089;47.428;15.006;2023-04-24T00:45:03;10.65;;;9.73;;
31464;SDS011;18089;47.428;15.006;2023-04-24T00:47:36;10.35;;;9.32;;
31464;SDS011;18089;47.428;15.006;2023-04-24T00:50:10;10.45;;;9.65;;
31464;SDS011;18089;47.428;15.006;2023-04-24T00:52:43;10.52;;;9.63;;
31464;SDS011;18089;47.428;15.006;2023-04-24T00:55:15;10.60;;;9.75;;
31464;SDS011;18089;47.428;15.006;2023-04-24T00:57:47;10.07;;;9.30;;
31464;SDS011;18089;47.428;15.006;2023-04-24T01:00:20;10.70;;;9.70;;
31464;SDS011;18089;47.428;15.006;2023-04-24T01:02:53;10.30;;;9.32;;
31464;SDS011;18089;47.428;15.006;2023-04-24T01:05:26;10.55;;;9.65;;
31464;SDS011;18089;47.428;15.006;2023-04-24T01:07:59;10.40;;;9.60;;
31464;SDS011;18089;47.428;15.006;2023-04-24T01:10:31;10.85;;;9.85;;
31464;SDS011;18089;47.428;15.006;2023-04-24T01:13:04;10.82;;;9.93;;
31464;SDS011;18089;47.428;15.006;2023-04-24T01:15:36;12.60;;;10.80;;
31464;SDS011;18089;47.428;15.006;2023-04-24T01:18:09;11.60;;;10.50;;
31464;SDS011;18089;47.428;15.006;2023-04-24T01:20:42;12.25;;;10.85;;
31464;SDS011;18089;47.428;15.006;2023-04-24T01:23:16;12.60;;;11.35;;
31464;SDS011;18089;47.428;15.006;2023-04-24T01:25:48;13.00;;;11.05;;
31464;SDS011;18089;47.428;15.006;2023-04-24T01:28:21;13.05;;;11.85;;
31464;SDS011;18089;47.428;15.006;2023-04-24T01:30:53;12.38;;;11.07;;
31464;SDS011;18089;47.428;15.006;2023-04-24T01:33:25;12.23;;;10.50;;
31464;SDS011;18089;47.428;15.006;2023-04-24T01:35:57;12.23;;;11.10;;
31464;SDS011;18089;47.428;15.006;2023-04-24T01:38:31;11.57;;;10.20;;
31464;SDS011;18089;47.428;15.006;2023-04-24T01:41:03;11.63;;;10.60;;
31464;SDS011;18089;47.428;15.006;2023-04-24T01:43:35;10.68;;;9.85;;
31464;SDS011;18089;47.428;15.006;2023-04-24T01:46:07;10.93;;;10.02;;
31464;SDS011;18089;47.428;15.006;2023-04-24T01:48:39;10.95;;;10.00;;
31464;SDS011;18089;47.428;15.006;2023-04-24T01:51:11;11.02;;;10.02;;
31464;SDS011;18089;47.428;15.006;2023-04-24T01:53:45;11.10;;;10.10;;
31464;SDS011;18089;47.428;15.006;2023-04-24T01:56:17;10.85;;;10.05;;
31464;SDS011;18089;47.428;15.006;2023-04-24T01:58:50;11.18;;;10.18;;
31464;SDS011;18089;47.428;15.006;2023-04-24T02:01:24;11.35;;;10.18;;
31464;SDS011;18089;47.428;15.006;2023-04-24T02:03:56;10.75;;;9.75;;
31464;SDS011;18089;47.428;15.006;2023-04-24T02:06:28;12.07;;;10.48;;
31464;SDS011;18089;47.428;15.006;2023-04-24T02:09:03;11.07;;;10.15;;
31464;SDS011;18089;47.428;15.006;2023-04-24T02:11:34;11.18;;;10.18;;
31464;SDS011;18089;47.428;15.006;2023-04-24T02:14:07;12.20;;;10.45;;
31464;SDS011;18089;47.428;15.006;2023-04-24T02:16:39;11.55;;;10.45;;
31464;SDS011;18089;47.428;15.006;2023-04-24T02:19:11;11.68;;;10.48;;
31464;SDS011;18089;47.428;15.006;2023-04-24T02:21:43;11.98;;;10.85;;
31464;SDS011;18089;47.428;15.006;2023-04-24T02:24:16;13.25;;;11.95;;
31464;SDS011;18089;47.428;15.006;2023-04-24T02:26:48;13.18;;;11.80;;
31464;SDS011;18089;47.428;15.006;2023-04-24T02:29:20;12.45;;;11.15;;
31464;SDS011;18089;47.428;15.006;2023-04-24T02:31:52;12.40;;;11.30;;
31464;SDS011;18089;47.428;15.006;2023-04-24T02:34:24;12.45;;;11.15;;
31464;SDS011;18089;47.428;15.006;2023-04-24T02:36:56;13.15;;;11.82;;
31464;SDS011;18089;47.428;15.006;2023-04-24T02:39:30;12.88;;;11.63;;
31464;SDS011;18089;47.428;15.006;2023-04-24T02:42:02;13.23;;;11.73;;
31464;SDS011;18089;47.428;15.006;2023-04-24T02:44:34;12.45;;;11.20;;
31464;SDS011;18089;47.428;15.006;2023-04-24T02:47:06;12.23;;;11.13;;
31464;SDS011;18089;47.428;15.006;2023-04-24T02:49:38;12.20;;;11.10;;
31464;SDS011;18089;47.428;15.006;2023-04-24T02:52:10;12.20;;;10.95;;
31464;SDS011;18089;47.428;15.006;2023-04-24T02:54:44;11.80;;;10.57;;
31464;SDS011;18089;47.428;15.006;2023-04-24T02:57:16;11.05;;;10.05;;
31464;SDS011;18089;47.428;15.006;2023-04-24T02:59:48;11.68;;;10.63;;
31464;SDS011;18089;47.428;15.006;2023-04-24T03:02:20;11.40;;;10.32;;
31464;SDS011;18089;47.428;15.006;2023-04-24T03:04:52;11.82;;;10.82;;
31464;SDS011;18089;47.428;15.006;2023-04-24T03:07:25;10.65;;;9.55;;
31464;SDS011;18089;47.428;15.006;2023-04-24T03:09:58;11.25;;;10.35;;
31464;SDS011;18089;47.428;15.006;2023-04-24T03:12:30;12.10;;;10.95;;
31464;SDS011;18089;47.428;15.006;2023-04-24T03:15:03;11.57;;;10.57;;
31464;SDS011;18089;47.428;15.006;2023-04-24T03:17:35;11.57;;;10.57;;
31464;SDS011;18089;47.428;15.006;2023-04-24T03:20:07;11.15;;;10.15;;
31464;SDS011;18089;47.428;15.006;2023-04-24T03:22:40;12.55;;;11.35;;
31464;SDS011;18089;47.428;15.006;2023-04-24T03:25:13;11.35;;;10.45;;
31464;SDS011;18089;47.428;15.006;2023-04-24T03:27:45;12.27;;;11.07;;
31464;SDS011;18089;47.428;15.006;2023-04-24T03:30:17;12.18;;;11.18;;
31464;SDS011;18089;47.428;15.006;2023-04-24T03:32:49;12.68;;;11.48;;
31464;SDS011;18089;47.428;15.006;2023-04-24T03:35:22;11.68;;;10.63;;
31464;SDS011;18089;47.428;15.006;2023-04-24T03:37:54;12.50;;;11.30;;
31464;SDS011;18089;47.428;15.006;2023-04-24T03:40:27;12.95;;;11.13;;
31464;SDS011;18089;47.428;15.006;2023-04-24T03:42:59;12.43;;;11.32;;
31464;SDS011;18089;47.428;15.006;2023-04-24T03:45:31;12.95;;;11.85;;
31464;SDS011;18089;47.428;15.006;2023-04-24T03:48:03;12.35;;;11.25;;
31464;SDS011;18089;47.428;15.006;2023-04-24T03:50:35;12.35;;;11.25;;
31464;SDS011;18089;47.428;15.006;2023-04-24T03:53:07;11.73;;;10.63;;
31464;SDS011;18089;47.428;15.006;2023-04-24T03:55:41;12.15;;;11.02;;
31464;SDS011;18089;47.428;15.006;2023-04-24T03:58:13;11.95;;;10.82;;
31464;SDS011;18089;47.428;15.006;2023-04-24T04:00:45;11.85;;;10.85;;
31464;SDS011;18089;47.428;15.006;2023-04-24T04:03:17;12.68;;;11.57;;
31464;SDS011;18089;47.428;15.006;2023-04-24T04:05:49;12.23;;;11.23;;
31464;SDS011;18089;47.428;15.006;2023-04-24T04:08:21;13.13;;;11.93;;
31464;SDS011;18089;47.428;15.006;2023-04-24T04:10:55;12.75;;;11.52;;
31464;SDS011;18089;47.428;15.006;2023-04-24T04:13:27;12.68;;;11.38;;
31464;SDS011;18089;47.428;15.006;2023-04-24T04:15:59;13.20;;;12.10;;
31464;SDS011;18089;47.428;15.006;2023-04-24T04:18:31;12.80;;;11.50;;
31464;SDS011;18089;47.428;15.006;2023-04-24T04:21:03;12.65;;;11.55;;
31464;SDS011;18089;47.428;15.006;2023-04-24T04:23:35;13.48;;;12.07;;
31464;SDS011;18089;47.428;15.006;2023-04-24T04:26:09;12.38;;;11.23;;
31464;SDS011;18089;47.428;15.006;2023-04-24T04:28:42;15.27;;;12.60;;
31464;SDS011;18089;47.428;15.006;2023-04-24T04:31:15;12.18;;;11.07;;
31464;SDS011;18089;47.428;15.006;2023-04-24T04:33:47;13.82;;;12.05;;
31464;SDS011;18089;47.428;15.006;2023-04-24T04:36:19;13.70;;;12.40;;
31464;SDS011;18089;47.428;15.006;2023-04-24T04:38:51;13.43;;;12.13;;
31464;SDS011;18089;47.428;15.006;2023-04-24T04:41:26;16.33;;;12.85;;
31464;SDS011;18089;47.428;15.006;2023-04-24T04:43:58;13.90;;;12.45;;
31464;SDS011;18089;47.428;15.006;2023-04-24T04:46:30;14.00;;;12.63;;
31464;SDS011;18089;47.428;15.006;2023-04-24T04:49:04;14.63;;;13.13;;
31464;SDS011;18089;47.428;15.006;2023-04-24T04:51:36;30.02;;;18.52;;
31464;SDS011;18089;47.428;15.006;2023-04-24T04:54:08;45.97;;;24.92;;
31464;SDS011;18089;47.428;15.006;2023-04-24T04:56:41;44.85;;;24.50;;
31464;SDS011;18089;47.428;15.006;2023-04-24T04:59:14;49.72;;;28.27;;
31464;SDS011;18089;47.428;15.006;2023-04-24T05:01:46;34.72;;;21.27;;
31464;SDS011;18089;47.428;15.006;2023-04-24T05:04:18;25.70;;;17.52;;
31464;SDS011;18089;47.428;15.006;2023-04-24T05:06:50;28.70;;;18.67;;
31464;SDS011;18089;47.428;15.006;2023-04-24T05:09:22;26.30;;;16.45;;
31464;SDS011;18089;47.428;15.006;2023-04-24T05:11:58;19.55;;;15.82;;
31464;SDS011;18089;47.428;15.006;2023-04-24T05:14:30;18.10;;;14.77;;
31464;SDS011;18089;47.428;15.006;2023-04-24T05:17:02;16.63;;;14.75;;
31464;SDS011;18089;47.428;15.006;2023-04-24T05:19:34;19.58;;;14.98;;
31464;SDS011;18089;47.428;15.006;2023-04-24T05:22:08;17.58;;;14.65;;
31464;SDS011;18089;47.428;15.006;2023-04-24T05:24:40;16.45;;;14.30;;
31464;SDS011;18089;47.428;15.006;2023-04-24T05:27:13;17.85;;;14.85;;
31464;SDS011;18089;47.428;15.006;2023-04-24T05:29:45;16.48;;;14.23;;
31464;SDS011;18089;47.428;15.006;2023-04-24T05:32:17;18.55;;;15.02;;
31464;SDS011;18089;47.428;15.006;2023-04-24T05:34:50;19.25;;;14.40;;
31464;SDS011;18089;47.428;15.006;2023-04-24T05:37:22;16.27;;;14.57;;
31464;SDS011;18089;47.428;15.006;2023-04-24T05:39:54;16.52;;;14.32;;
31464;SDS011;18089;47.428;15.006;2023-04-24T05:42:27;15.57;;;13.98;;
31464;SDS011;18089;47.428;15.006;2023-04-24T05:44:59;19.15;;;15.02;;
31464;SDS011;18089;47.428;15.006;2023-04-24T05:47:31;16.23;;;13.93;;
31464;SDS011;18089;47.428;15.006;2023-04-24T05:50:03;16.17;;;13.65;;
31464;SDS011;18089;47.428;15.006;2023-04-24T05:52:36;16.20;;;13.93;;
31464;SDS011;18089;47.428;15.006;2023-04-24T05:55:08;17.20;;;15.40;;
31464;SDS011;18089;47.428;15.006;2023-04-24T05:57:42;26.58;;;19.63;;
31464;SDS011;18089;47.428;15.006;2023-04-24T06:00:14;40.05;;;25.40;;
31464;SDS011;18089;47.428;15.006;2023-04-24T06:02:48;34.83;;;23.10;;
31464;SDS011;18089;47.428;15.006;2023-04-24T06:05:20;40.35;;;25.40;;
31464;SDS011;18089;47.428;15.006;2023-04-24T06:07:52;44.97;;;27.95;;
31464;SDS011;18089;47.428;15.006;2023-04-24T06:10:24;42.97;;;26.45;;
31464;SDS011;18089;47.428;15.006;2023-04-24T06:12:58;45.15;;;26.58;;
31464;SDS011;18089;47.428;15.006;2023-04-24T06:15:31;32.85;;;19.88;;
31464;SDS011;18089;47.428;15.006;2023-04-24T06:18:03;20.25;;;17.30;;
31464;SDS011;18089;47.428;15.006;2023-04-24T06:20:35;26.05;;;18.52;;
31464;SDS011;18089;47.428;15.006;2023-04-24T06:23:07;26.23;;;18.55;;
31464;SDS011;18089;47.428;15.006;2023-04-24T06:25:39;22.60;;;17.77;;
31464;SDS011;18089;47.428;15.006;2023-04-24T06:28:13;21.85;;;18.50;;
31464;SDS011;18089;47.428;15.006;2023-04-24T06:30:45;21.13;;;18.13;;
31464;SDS011;18089;47.428;15.006;2023-04-24T06:33:17;25.35;;;18.35;;
31464;SDS011;18089;47.428;15.006;2023-04-24T06:35:49;22.55;;;16.88;;
31464;SDS011;18089;47.428;15.006;2023-04-24T06:38:21;21.08;;;17.45;;
31464;SDS011;18089;47.428;15.006;2023-04-24T06:40:53;23.95;;;16.35;;
31464;SDS011;18089;47.428;15.006;2023-04-24T06:43:26;19.88;;;16.70;;
31464;SDS011;18089;47.428;15.006;2023-04-24T06:45:59;19.27;;;14.48;;
31464;SDS011;18089;47.428;15.006;2023-04-24T06:48:32;19.70;;;15.80;;
31464;SDS011;18089;47.428;15.006;2023-04-24T06:51:04;17.73;;;14.75;;
31464;SDS011;18089;47.428;15.006;2023-04-24T06:53:36;18.70;;;16.35;;
31464;SDS011;18089;47.428;15.006;2023-04-24T06:56:08;25.38;;;19.17;;
31464;SDS011;18089;47.428;15.006;2023-04-24T06:58:41;41.42;;;25.95;;
31464;SDS011;18089;47.428;15.006;2023-04-24T07:01:14;43.58;;;27.42;;
31464;SDS011;18089;47.428;15.006;2023-04-24T07:03:46;35.10;;;24.25;;
31464;SDS011;18089;47.428;15.006;2023-04-24T07:06:18;38.90;;;25.20;;
31464;SDS011;18089;47.428;15.006;2023-04-24T07:08:52;45.88;;;27.73;;
31464;SDS011;18089;47.428;15.006;2023-04-24T07:11:25;44.97;;;25.70;;
31464;SDS011;18089;47.428;15.006;2023-04-24T07:14:00;39.28;;;24.50;;
31464;SDS011;18089;47.428;15.006;2023-04-24T07:16:32;48.22;;;32.00;;
31464;SDS011;18089;47.428;15.006;2023-04-24T07:19:04;42.22;;;28.98;;
31464;SDS011;18089;47.428;15.006;2023-04-24T07:21:37;49.10;;;32.22;;
31464;SDS011;18089;47.428;15.006;2023-04-24T07:24:08;50.45;;;34.13;;
31464;SDS011;18089;47.428;15.006;2023-04-24T07:26:41;44.95;;;31.83;;
31464;SDS011;18089;47.428;15.006;2023-04-24T07:29:15;26.48;;;20.42;;
31464;SDS011;18089;47.428;15.006;2023-04-24T07:31:47;26.85;;;20.25;;
31464;SDS011;18089;47.428;15.006;2023-04-24T07:34:19;24.25;;;19.65;;
31464;SDS011;18089;47.428;15.006;2023-04-24T07:36:51;22.33;;;17.30;;
31464;SDS011;18089;47.428;15.006;2023-04-24T07:39:23;17.83;;;14.60;;
31464;SDS011;18089;47.428;15.006;2023-04-24T07:41:56;12.10;;;10.90;;
31464;SDS011;18089;47.428;15.006;2023-04-24T07:44:30;10.48;;;9.57;;
31464;SDS011;18089;47.428;15.006;2023-04-24T07:47:02;7.20;;;6.68;;
31464;SDS011;18089;47.428;15.006;2023-04-24T07:49:34;5.88;;;5.55;;
31464;SDS011;18089;47.428;15.006;2023-04-24T07:52:06;5.65;;;5.35;;
31464;SDS011;18089;47.428;15.006;2023-04-24T07:54:38;5.38;;;5.07;;
31464;SDS011;18089;47.428;15.006;2023-04-24T07:57:10;5.70;;;5.40;;
31464;SDS011;18089;47.428;15.006;2023-04-24T07:59:44;5.47;;;5.18;;
31464;SDS011;18089;47.428;15.006;2023-04-24T08:02:16;6.18;;;5.68;;
31464;SDS011;18089;47.428;15.006;2023-04-24T08:04:48;5.45;;;5.05;;
31464;SDS011;18089;47.428;15.006;2023-04-24T08:07:20;6.10;;;5.70;;
31464;SDS011;18089;47.428;15.006;2023-04-24T08:09:52;5.03;;;4.72;;
31464;SDS011;18089;47.428;15.006;2023-04-24T08:12:24;4.90;;;4.60;;
31464;SDS011;18089;47.428;15.006;2023-04-24T08:14:57;5.07;;;4.68;;
31464;SDS011;18089;47.428;15.006;2023-04-24T08:17:29;4.63;;;4.43;;
31464;SDS011;18089;47.428;15.006;2023-04-24T08:20:01;4.70;;;4.50;;
31464;SDS011;18089;47.428;15.006;2023-04-24T08:22:35;4.70;;;4.30;;
31464;SDS011;18089;47.428;15.006;2023-04-24T08:25:07;4.93;;;4.63;;
31464;SDS011;18089;47.428;15.006;2023-04-24T08:27:40;4.85;;;4.55;;
31464;SDS011;18089;47.428;15.006;2023-04-24T08:30:13;4.70;;;4.45;;
31464;SDS011;18089;47.428;15.006;2023-04-24T08:32:46;4.20;;;4.00;;
31464;SDS011;18089;47.428;15.006;2023-04-24T08:35:18;4.00;;;3.80;;
31464;SDS011;18089;47.428;15.006;2023-04-24T08:37:51;3.90;;;3.70;;
31464;SDS011;18089;47.428;15.006;2023-04-24T08:40:26;4.80;;;4.50;;
31464;SDS011;18089;47.428;15.006;2023-04-24T08:43:00;3.97;;;3.78;;
31464;SDS011;18089;47.428;15.006;2023-04-24T08:45:33;3.53;;;3.33;;
31464;SDS011;18089;47.428;15.006;2023-04-24T08:48:05;3.50;;;3.33;;
31464;SDS011;18089;47.428;15.006;2023-04-24T08:50:38;3.47;;;3.38;;
31464;SDS011;18089;47.428;15.006;2023-04-24T08:53:11;3.92;;;3.75;;
31464;SDS011;18089;47.428;15.006;2023-04-24T08:55:43;3.92;;;3.63;;
31464;SDS011;18089;47.428;15.006;2023-04-24T08:58:19;3.72;;;3.53;;
31464;SDS011;18089;47.428;15.006;2023-04-24T09:00:55;3.63;;;3.50;;
31464;SDS011;18089;47.428;15.006;2023-04-24T09:03:27;4.15;;;3.85;;
31464;SDS011;18089;47.428;15.006;2023-04-24T09:06:00;4.15;;;3.95;;
31464;SDS011;18089;47.428;15.006;2023-04-24T09:08:32;3.95;;;3.75;;
31464;SDS011;18089;47.428;15.006;2023-04-24T09:11:05;3.60;;;3.40;;
31464;SDS011;18089;47.428;15.006;2023-04-24T09:13:37;3.30;;;3.20;;
31464;SDS011;18089;47.428;15.006;2023-04-24T09:16:10;3.17;;;3.05;;
31464;SDS011;18089;47.428;15.006;2023-04-24T09:18:43;2.97;;;2.88;;
31464;SDS011;18089;47.428;15.006;2023-04-24T09:21:15;3.08;;;2.97;;
31464;SDS011;18089;47.428;15.006;2023-04-24T09:23:47;5.35;;;4.95;;
31464;SDS011;18089;47.428;15.006;2023-04-24T09:26:29;3.60;;;3.40;;
31464;SDS011;18089;47.428;15.006;2023-04-24T09:29:04;3.28;;;3.17;;
31464;SDS011;18089;47.428;15.006;2023-04-24T09:31:38;3.50;;;3.30;;
31464;SDS011;18089;47.428;15.006;2023-04-24T09:34:10;3.15;;;3.05;;
31464;SDS011;18089;47.428;15.006;2023-04-24T09:36:42;3.42;;;3.33;;
31464;SDS011;18089;47.428;15.006;2023-04-24T09:39:15;3.72;;;3.55;;
31464;SDS011;18089;47.428;15.006;2023-04-24T09:41:48;3.55;;;3.35;;
31464;SDS011;18089;47.428;15.006;2023-04-24T09:44:21;3.50;;;3.20;;
31464;SDS011;18089;47.428;15.006;2023-04-24T09:46:56;3.55;;;3.28;;
31464;SDS011;18089;47.428;15.006;2023-04-24T09:49:30;3.53;;;3.33;;
31464;SDS011;18089;47.428;15.006;2023-04-24T09:52:03;3.65;;;3.38;;
31464;SDS011;18089;47.428;15.006;2023-04-24T09:54:36;3.40;;;3.30;;
31464;SDS011;18089;47.428;15.006;2023-04-24T09:57:08;4.15;;;3.85;;
31464;SDS011;18089;47.428;15.006;2023-04-24T09:59:41;3.75;;;3.65;;
31464;SDS011;18089;47.428;15.006;2023-04-24T10:02:19;3.80;;;3.70;;
31464;SDS011;18089;47.428;15.006;2023-04-24T10:04:54;4.07;;;3.75;;
31464;SDS011;18089;47.428;15.006;2023-04-24T10:07:29;4.10;;;3.90;;
31464;SDS011;18089;47.428;15.006;2023-04-24T10:10:01;4.20;;;3.90;;
31464;SDS011;18089;47.428;15.006;2023-04-24T10:12:33;4.10;;;3.95;;
31464;SDS011;18089;47.428;15.006;2023-04-24T10:15:05;4.07;;;3.88;;
31464;SDS011;18089;47.428;15.006;2023-04-24T10:17:40;4.05;;;3.80;;
31464;SDS011;18089;47.428;15.006;2023-04-24T10:20:12;3.40;;;3.30;;
31464;SDS011;18089;47.428;15.006;2023-04-24T10:22:45;3.60;;;3.40;;
31464;SDS011;18089;47.428;15.006;2023-04-24T10:25:20;3.88;;;3.58;;
31464;SDS011;18089;47.428;15.006;2023-04-24T10:27:53;3.10;;;3.00;;
31464;SDS011;18089;47.428;15.006;2023-04-24T10:30:27;3.13;;;3.03;;
31464;SDS011;18089;47.428;15.006;2023-04-24T10:33:02;3.13;;;3.03;;
31464;SDS011;18089;47.428;15.006;2023-04-24T10:35:36;3.33;;;3.17;;
31464;SDS011;18089;47.428;15.006;2023-04-24T10:38:11;3.90;;;3.70;;
31464;SDS011;18089;47.428;15.006;2023-04-24T10:40:45;3.47;;;3.15;;
31464;SDS011;18089;47.428;15.006;2023-04-24T10:43:17;2.92;;;2.75;;
31464;SDS011;18089;47.428;15.006;2023-04-24T10:46:00;3.20;;;3.10;;
31464;SDS011;18089;47.428;15.006;2023-04-24T10:48:34;3.22;;;3.13;;
31464;SDS011;18089;47.428;15.006;2023-04-24T10:51:10;3.05;;;2.95;;
31464;SDS011;18089;47.428;15.006;2023-04-24T10:53:43;3.17;;;3.08;;
31464;SDS011;18089;47.428;15.006;2023-04-24T10:56:15;3.17;;;2.80;;
31464;SDS011;18089;47.428;15.006;2023-04-24T10:58:49;2.75;;;2.65;;
31464;SDS011;18089;47.428;15.006;2023-04-24T11:01:25;3.40;;;3.20;;
31464;SDS011;18089;47.428;15.006;2023-04-24T11:04:00;9.10;;;7.30;;
31464;SDS011;18089;47.428;15.006;2023-04-24T11:06:33;8.18;;;7.38;;
31464;SDS011;18089;47.428;15.006;2023-04-24T11:09:06;8.00;;;5.95;;
31464;SDS011;18089;47.428;15.006;2023-04-24T11:11:43;5.95;;;5.35;;
31464;SDS011;18089;47.428;15.006;2023-04-24T11:14:16;3.20;;;3.00;;
31464;SDS011;18089;47.428;15.006;2023-04-24T11:16:51;4.90;;;4.50;;
31464;SDS011;18089;47.428;15.006;2023-04-24T11:19:25;3.90;;;3.63;;
31464;SDS011;18089;47.428;15.006;2023-04-24T11:21:59;5.72;;;3.20;;
31464;SDS011;18089;47.428;15.006;2023-04-24T11:24:33;4.10;;;3.80;;
31464;SDS011;18089;47.428;15.006;2023-04-24T11:27:11;3.00;;;2.90;;
31464;SDS011;18089;47.428;15.006;2023-04-24T11:29:46;3.60;;;3.40;;
31464;SDS011;18089;47.428;15.006;2023-04-24T11:32:23;3.22;;;3.13;;
31464;SDS011;18089;47.428;15.006;2023-04-24T11:34:58;3.17;;;3.08;;
31464;SDS011;18089;47.428;15.006;2023-04-24T11:37:33;2.70;;;2.60;;
31464;SDS011;18089;47.428;15.006;2023-04-24T11:40:07;3.72;;;3.53;;
31464;SDS011;18089;47.428;15.006;2023-04-24T11:42:41;3.30;;;3.10;;
31464;SDS011;18089;47.428;15.006;2023-04-24T11:45:15;2.30;;;2.20;;
31464;SDS011;18089;47.428;15.006;2023-04-24T11:47:47;2.60;;;2.50;;
31464;SDS011;18089;47.428;15.006;2023-04-24T11:50:21;2.90;;;2.80;;
31464;SDS011;18089;47.428;15.006;2023-04-24T11:52:55;2.70;;;2.60;;
31464;SDS011;18089;47.428;15.006;2023-04-24T11:55:28;2.95;;;2.85;;
31464;SDS011;18089;47.428;15.006;2023-04-24T11:58:00;3.30;;;2.97;;
31464;SDS011;18089;47.428;15.006;2023-04-24T12:00:32;2.22;;;2.13;;
31464;SDS011;18089;47.428;15.006;2023-04-24T12:03:06;2.42;;;2.33;;
31464;SDS011;18089;47.428;15.006;2023-04-24T12:05:40;2.75;;;2.65;;
31464;SDS011;18089;47.428;15.006;2023-04-24T12:08:22;2.30;;;2.20;;
31464;SDS011;18089;47.428;15.006;2023-04-24T12:10:59;6.15;;;4.65;;
31464;SDS011;18089;47.428;15.006;2023-04-24T12:13:31;2.83;;;2.63;;
31464;SDS011;18089;47.428;15.006;2023-04-24T12:16:04;3.42;;;3.13;;
31464;SDS011;18089;47.428;15.006;2023-04-24T12:18:40;2.47;;;2.38;;
31464;SDS011;18089;47.428;15.006;2023-04-24T12:21:19;2.30;;;2.10;;
31464;SDS011;18089;47.428;15.006;2023-04-24T12:23:53;5.78;;;3.60;;
31464;SDS011;18089;47.428;15.006;2023-04-24T12:26:26;2.35;;;2.25;;
31464;SDS011;18089;47.428;15.006;2023-04-24T12:29:01;2.10;;;2.00;;
31464;SDS011;18089;47.428;15.006;2023-04-24T12:31:34;2.67;;;2.58;;
31464;SDS011;18089;47.428;15.006;2023-04-24T12:34:16;2.50;;;2.40;;
31464;SDS011;18089;47.428;15.006;2023-04-24T12:36:51;2.40;;;2.30;;
31464;SDS011;18089;47.428;15.006;2023-04-24T12:39:23;3.10;;;2.90;;
31464;SDS011;18089;47.428;15.006;2023-04-24T12:41:56;3.03;;;2.80;;
31464;SDS011;18089;47.428;15.006;2023-04-24T12:44:30;2.97;;;2.65;;
31464;SDS011;18089;47.428;15.006;2023-04-24T12:47:04;2.55;;;2.45;;
31464;SDS011;18089;47.428;15.006;2023-04-24T12:49:36;2.50;;;2.40;;
31464;SDS011;18089;47.428;15.006;2023-04-24T12:52:10;3.78;;;3.03;;
31464;SDS011;18089;47.428;15.006;2023-04-24T12:54:42;3.05;;;2.85;;
31464;SDS011;18089;47.428;15.006;2023-04-24T12:57:14;2.50;;;2.40;;
31464;SDS011;18089;47.428;15.006;2023-04-24T12:59:46;2.25;;;2.15;;
31464;SDS011;18089;47.428;15.006;2023-04-24T13:02:18;2.50;;;2.40;;
31464;SDS011;18089;47.428;15.006;2023-04-24T13:04:51;2.38;;;2.28;;
31464;SDS011;18089;47.428;15.006;2023-04-24T13:07:25;2.40;;;2.30;;
31464;SDS011;18089;47.428;15.006;2023-04-24T13:09:57;2.55;;;2.45;;
31464;SDS011;18089;47.428;15.006;2023-04-24T13:12:29;2.03;;;1.75;;
31464;SDS011;18089;47.428;15.006;2023-04-24T13:15:01;2.38;;;2.17;;
31464;SDS011;18089;47.428;15.006;2023-04-24T13:17:34;2.10;;;2.00;;
31464;SDS011;18089;47.428;15.006;2023-04-24T13:20:06;1.92;;;1.90;;
31464;SDS011;18089;47.428;15.006;2023-04-24T13:22:40;1.60;;;1.60;;
31464;SDS011;18089;47.428;15.006;2023-04-24T13:25:12;1.85;;;1.85;;
31464;SDS011;18089;47.428;15.006;2023-04-24T13:27:47;2.83;;;2.28;;
31464;SDS011;18089;47.428;15.006;2023-04-24T13:30:19;1.95;;;1.92;;
31464;SDS011;18089;47.428;15.006;2023-04-24T13:32:51;2.15;;;2.05;;
31464;SDS011;18089;47.428;15.006;2023-04-24T13:35:23;1.80;;;1.80;;
31464;SDS011;18089;47.428;15.006;2023-04-24T13:37:57;1.80;;;1.70;;
31464;SDS011;18089;47.428;15.006;2023-04-24T13:40:30;1.65;;;1.50;;
31464;SDS011;18089;47.428;15.006;2023-04-24T13:43:02;2.42;;;2.22;;
31464;SDS011;18089;47.428;15.006;2023-04-24T13:45:34;4.22;;;3.03;;
31464;SDS011;18089;47.428;15.006;2023-04-24T13:48:06;2.75;;;2.20;;
31464;SDS011;18089;47.428;15.006;2023-04-24T13:50:39;2.10;;;2.00;;
31464;SDS011;18089;47.428;15.006;2023-04-24T13:53:12;1.63;;;1.63;;
31464;SDS011;18089;47.428;15.006;2023-04-24T13:55:44;2.20;;;2.10;;
31464;SDS011;18089;47.428;15.006;2023-04-24T13:58:16;2.30;;;2.20;;
31464;SDS011;18089;47.428;15.006;2023-04-24T14:00:48;2.30;;;2.10;;
31464;SDS011;18089;47.428;15.006;2023-04-24T14:03:21;2.35;;;2.20;;
31464;SDS011;18089;47.428;15.006;2023-04-24T14:05:53;2.63;;;2.42;;
31464;SDS011;18089;47.428;15.006;2023-04-24T14:08:26;2.88;;;2.67;;
31464;SDS011;18089;47.428;15.006;2023-04-24T14:10:58;2.42;;;2.33;;
31464;SDS011;18089;47.428;15.006;2023-04-24T14:13:30;2.83;;;2.70;;
31464;SDS011;18089;47.428;15.006;2023-04-24T14:16:03;2.63;;;2.53;;
31464;SDS011;18089;47.428;15.006;2023-04-24T14:18:35;5.72;;;3.05;;
31464;SDS011;18089;47.428;15.006;2023-04-24T14:21:07;4.60;;;4.20;;
31464;SDS011;18089;47.428;15.006;2023-04-24T14:23:40;3.67;;;3.47;;
31464;SDS011;18089;47.428;15.006;2023-04-24T14:26:12;4.03;;;3.83;;
31464;SDS011;18089;47.428;15.006;2023-04-24T14:28:45;3.88;;;3.67;;
31464;SDS011;18089;47.428;15.006;2023-04-24T14:31:17;3.58;;;3.38;;
31464;SDS011;18089;47.428;15.006;2023-04-24T14:33:49;3.30;;;3.10;;
31464;SDS011;18089;47.428;15.006;2023-04-24T14:36:21;3.55;;;3.45;;
31464;SDS011;18089;47.428;15.006;2023-04-24T14:38:54;3.95;;;3.75;;
31464;SDS011;18089;47.428;15.006;2023-04-24T14:41:26;4.05;;;3.63;;
31464;SDS011;18089;47.428;15.006;2023-04-24T14:43:58;3.58;;;3.45;;
31464;SDS011;18089;47.428;15.006;2023-04-24T14:46:30;4.05;;;3.85;;
31464;SDS011;18089;47.428;15.006;2023-04-24T14:49:04;4.13;;;3.83;;
31464;SDS011;18089;47.428;15.006;2023-04-24T14:51:39;3.65;;;3.40;;
31464;SDS011;18089;47.428;15.006;2023-04-24T14:54:14;4.22;;;3.92;;